Flight Number: EUR1168 Duration: 1:00
Departure: London City Airport (EGLC) at 21:15 Distance: 205 Nm
Arrival: Paris Charles-de-Gaulle (LFPG) at 22:15 Equipment: CRJ700

Weather Information
London City Airport, United Kingdom (EGLC) 51-30N 000-30W Feb 24, 2018 - 12:50 AM EST / 2018.02.24 0550 UTC
Wind: from the ENE (070 degrees) at 8 MPH (7 KT):0
Visibility: greater than 7 mile(s):0 Temperature: 33 F (1 C)
Windchill: 26 F (-3 C):1 Dew Point: 26 F (-3 C) Relative Humidity: 74% Pressure (altimeter): 30.12 in. Hg (1020 hPa)
ob: EGLC 240550Z AUTO 07007KT 9999 NCD 01/M03 Q1020 cycle: 6
Sunrise: 06:58 Sunset: 17:27 (UTC)

Paris-Aeroport Charles De Gaulle, France (LFPG) 49-01N 002-32E 109M Feb 24, 2018 - 01:00 AM EST / 2018.02.24 0600 UTC
Wind: from the NE (040 degrees) at 13 MPH (11 KT) (direction variable):0
Visibility: greater than 7 mile(s):0 Temperature: 28 F (-2 C)
Windchill: 17 F (-8 C):1 Dew Point: 19 F (-7 C) Relative Humidity: 68% Pressure (altimeter): 29.97 in. Hg (1015 hPa)
ob: LFPG 240600Z 04011KT 020V090 CAVOK M02/M07 Q1015 NOSIG cycle: 6
Sunrise: 06:44 Sunset: 17:21 (UTC)

TAF:2018/02/24 06:21 TAF LFPG 240500Z 2406/2512 04010KT CAVOK TEMPO 2412/2417 05015G25KT TEMPO 2508/2512 25015G25KT TX05/2414Z TNM04/2506Z

Previous Pireps for this route
Date Aircraft Flight time Fuel used Landing rate On time
2013-01-27CRJ70000.543706-221Yes
2013-08-09B73700.588696-506Charter
2013-08-11CRJ70000.5515086-404No
2013-10-24CRJ7001.0065530No
2013-10-25B1900D1.2070000No
2014-04-17CRJ7001.0054860No
2015-05-06CRJ7000.5520200Yes
2015-07-05CRJ7000.552080-163Yes
2015-07-07CRJ7000.562009-201Yes
2015-07-08CRJ7000.582485-179Yes
2015-08-18CRJ7000.542091-83Yes
(pireps marked green are flown by you)

Route map